Time;durP1;ratioP1;P1;durP2;ratioP2;P2;SDS_P1;SDS_P2;PMS_P1;PMS_P2;Temp;Humidity;BMP_temperature;BMP_pressure;BME280_temperature;BME280_humidity;BME280_pressure;Samples;Min_cycle;Max_cycle;Signal;HPM_P1;HPM_P2
2024/04/23 00:01:29;;;;;;;0.93;0.60;;;;;;;17.17;48.25;98941.75;6578974;21;20200;-76
2024/04/23 00:03:55;;;;;;;5.07;1.00;;;;;;;17.14;48.24;98949.97;6580841;21;20367;-76
2024/04/23 00:06:23;;;;;;;0.90;0.70;;;;;;;17.16;48.30;98948.84;6578848;21;19992;-76
2024/04/23 00:08:51;;;;;;;;;;;;;;;17.16;48.48;98946.19;6579653;21;20061;-76
2024/04/23 00:11:19;;;;;;;1.27;0.68;;;;;;;17.13;48.16;98935.97;6581586;21;19992;-77
2024/04/23 00:13:45;;;;;;;1.42;0.90;;;;;;;17.10;48.48;98938.09;6578755;21;20007;-77
2024/04/23 00:16:11;;;;;;;2.55;0.90;;;;;;;17.10;48.39;98933.63;6492635;21;20288;-77
2024/04/23 00:18:37;;;;;;;2.13;0.80;;;;;;;17.12;48.24;98931.66;6491952;21;20400;-76
2024/04/23 00:21:02;;;;;;;1.63;1.00;;;;;;;17.12;48.30;98917.66;6578648;21;19996;-75
2024/04/23 00:23:28;;;;;;;1.63;0.52;;;;;;;17.08;48.35;98917.13;6489981;21;19988;-77
2024/04/23 00:25:53;;;;;;;1.63;0.88;;;;;;;17.08;48.18;98911.88;6492652;21;20065;-76
2024/04/23 00:28:19;;;;;;;2.45;0.82;;;;;;;17.08;48.25;98914.50;6534783;21;19998;-75
2024/04/23 00:30:45;;;;;;;1.23;0.80;;;;;;;17.09;48.31;98910.84;6535215;21;20436;-76
2024/04/23 00:33:10;;;;;;;2.47;1.10;;;;;;;17.07;48.31;98902.28;6535836;21;19993;-76
2024/04/23 00:35:35;;;;;;;2.15;0.82;;;;;;;17.09;48.39;98899.50;6535585;21;19992;-77
2024/04/23 00:38:01;;;;;;;1.10;0.65;;;;;;;17.11;48.32;98900.16;6492351;21;20296;-77
2024/04/23 00:40:30;;;;;;;1.80;0.90;;;;;;;17.08;48.50;98900.47;6531347;21;19992;-76
2024/04/23 00:42:56;;;;;;;1.88;0.82;;;;;;;17.08;48.29;98908.38;6533667;21;20281;-77
2024/04/23 00:45:22;;;;;;;2.53;1.17;;;;;;;17.08;48.29;98892.56;6579318;21;19988;-76
2024/04/23 00:47:48;;;;;;;2.47;1.30;;;;;;;17.03;48.27;98887.78;6492634;21;20063;-77
2024/04/23 00:50:14;;;;;;;2.28;1.20;;;;;;;17.04;48.40;98892.03;6533927;21;19999;-76
2024/04/23 00:52:39;;;;;;;1.83;1.20;;;;;;;17.04;48.48;98889.41;6492428;21;19989;-76
2024/04/23 00:55:23;;;;;;;1.38;0.90;;;;;;;16.98;48.72;98887.38;6505644;21;20042;-75
2024/04/23 00:57:49;;;;;;;3.22;1.20;;;;;;;16.99;48.45;98894.31;6492225;21;20315;-75
2024/04/23 01:00:18;;;;;;;2.90;1.33;;;;;;;16.98;48.53;98890.88;6492769;21;20008;-78
2024/04/23 01:02:46;;;;;;;2.17;1.25;;;;;;;16.99;48.73;98883.78;6579172;21;19993;-76
2024/04/23 01:05:11;;;;;;;1.60;1.10;;;;;;;16.96;48.37;98881.44;6535018;21;20296;-75
2024/04/23 01:07:37;;;;;;;1.63;1.10;;;;;;;16.92;48.45;98865.13;6490815;21;19996;-81
2024/04/23 01:10:02;;;;;;;3.17;1.15;;;;;;;16.95;48.50;98862.16;6491585;21;20062;-79
2024/04/23 01:12:30;;;;;;;3.60;1.40;;;;;;;16.94;48.67;98860.50;6580984;21;19996;-80
2024/04/23 01:14:56;;;;;;;1.70;1.10;;;;;;;16.90;48.76;98872.31;6535488;21;20020;-79
2024/04/23 01:17:21;;;;;;;1.65;1.00;;;;;;;16.90;48.64;98876.78;6578969;21;20056;-78
2024/04/23 01:19:54;;;;;;;2.00;1.17;;;;;;;16.83;48.71;98874.72;6535173;21;19989;-79
2024/04/23 01:22:32;;;;;;;1.70;1.10;;;;;;;16.82;48.76;98878.38;6534811;21;19992;-78
2024/04/23 01:25:07;;;;;;;3.80;1.10;;;;;;;16.79;48.96;98883.94;6491581;21;20003;-80
2024/04/23 01:27:33;;;;;;;2.55;1.17;;;;;;;16.77;48.77;98880.63;6442472;21;19989;-79
2024/04/23 01:29:59;;;;;;;2.50;0.98;;;;;;;16.77;48.70;98875.34;6534892;21;19988;-78
2024/04/23 01:32:25;;;;;;;2.47;1.00;;;;;;;16.74;49.05;98883.56;6491679;21;20393;-76
2024/04/23 01:34:51;;;;;;;1.65;0.90;;;;;;;16.74;48.94;98888.00;6534076;21;20036;-76
2024/04/23 01:37:17;;;;;;;1.75;0.90;;;;;;;16.72;48.81;98903.97;6440953;22;20040;-76
2024/04/23 01:39:42;;;;;;;4.25;1.00;;;;;;;16.72;49.07;98911.06;6489911;21;19997;-75
2024/04/23 01:42:10;;;;;;;2.78;1.00;;;;;;;16.72;48.91;98905.78;6534123;21;19992;-76
2024/04/23 01:44:35;;;;;;;1.60;0.90;;;;;;;16.69;49.10;98906.91;6536254;21;19993;-76
2024/04/23 01:47:01;;;;;;;7.93;1.10;;;;;;;16.69;49.13;98916.63;6491840;21;20519;-77
2024/04/23 01:49:27;;;;;;;0.95;0.65;;;;;;;16.66;49.32;98920.41;6490104;21;19996;-77
2024/04/23 01:51:52;;;;;;;1.90;0.82;;;;;;;16.62;49.00;98908.53;6491184;21;19996;-76
2024/04/23 01:54:18;;;;;;;2.53;0.90;;;;;;;16.64;49.21;98928.44;6536780;21;20392;-77
2024/04/23 01:56:44;;;;;;;1.23;0.82;;;;;;;16.60;49.22;98915.72;6494043;21;20351;-76
2024/04/23 01:59:09;;;;;;;1.60;0.73;;;;;;;16.59;49.28;98908.81;6494259;21;19996;-76
2024/04/23 02:01:35;;;;;;;1.95;0.70;;;;;;;16.59;49.39;98912.28;6494420;21;19999;-76
2024/04/23 02:04:01;;;;;;;1.63;0.85;;;;;;;16.55;49.39;98916.19;6493845;21;20021;-76
2024/04/23 02:06:27;;;;;;;1.35;0.70;;;;;;;16.55;49.53;98915.34;6537681;21;20067;-76
2024/04/23 02:08:52;;;;;;;1.00;0.65;;;;;;;16.50;49.44;98901.81;6492111;21;20004;-76
2024/04/23 02:11:18;;;;;;;1.38;0.80;;;;;;;16.51;49.51;98903.44;6537482;21;19992;-76
2024/04/23 02:13:44;;;;;;;1.85;0.80;;;;;;;16.50;49.42;98909.72;6537667;21;19992;-76
2024/04/23 02:16:09;;;;;;;2.28;0.80;;;;;;;16.49;49.67;98906.25;6580516;21;20352;-76
2024/04/23 02:18:35;;;;;;;3.58;0.80;;;;;;;16.46;49.61;98904.75;6493318;21;19992;-77
2024/04/23 02:21:00;;;;;;;3.45;0.90;;;;;;;16.41;49.77;98903.53;6536510;21;19999;-76
2024/04/23 02:23:25;;;;;;;1.50;0.70;;;;;;;16.42;49.77;98903.38;6537444;21;20297;-77
2024/04/23 02:25:53;;;;;;;2.25;0.90;;;;;;;16.39;49.69;98890.50;6493857;21;19999;-77
2024/04/23 02:28:19;;;;;;;1.13;0.80;;;;;;;16.42;50.05;98903.38;6537881;21;20004;-76
2024/04/23 02:30:44;;;;;;;2.28;0.80;;;;;;;16.37;50.08;98896.94;6537047;21;20227;-76
2024/04/23 02:33:11;;;;;;;1.60;0.70;;;;;;;16.38;50.32;98909.94;6537248;21;19992;-76
2024/04/23 02:35:38;;;;;;;1.35;0.70;;;;;;;16.37;50.45;98928.53;6581129;21;20084;-76
2024/04/23 02:38:04;;;;;;;2.70;0.80;;;;;;;16.29;50.16;98931.91;6494066;21;19988;-76
2024/04/23 02:40:29;;;;;;;2.13;0.90;;;;;;;16.28;50.33;98944.22;6493001;21;20273;-76
2024/04/23 02:42:57;;;;;;;1.45;0.80;;;;;;;16.28;50.57;98944.22;6493789;21;19993;-75
2024/04/23 02:45:22;;;;;;;1.40;0.80;;;;;;;16.29;50.46;98960.88;6537858;21;20004;-76
2024/04/23 02:47:48;;;;;;;1.15;0.80;;;;;;;16.31;50.50;98951.03;6536594;21;19993;-75
2024/04/23 02:50:13;;;;;;;1.27;0.80;;;;;;;16.28;50.71;98940.78;6582859;21;20004;-76
2024/04/23 02:52:39;;;;;;;1.15;0.70;;;;;;;16.33;50.43;98937.69;6536949;21;20066;-76
2024/04/23 02:55:04;;;;;;;1.88;0.98;;;;;;;16.30;50.34;98940.63;6493967;21;20007;-76
2024/04/23 02:57:30;;;;;;;1.35;0.80;;;;;;;16.25;50.67;98918.19;6536893;21;19997;-76
2024/04/23 02:59:58;;;;;;;1.45;0.73;;;;;;;16.26;50.75;98925.13;6494102;21;19992;-76
2024/04/23 03:02:26;;;;;;;1.52;0.98;;;;;;;16.22;50.51;98929.03;6494067;21;20003;-77
2024/04/23 03:04:51;;;;;;;1.67;0.85;;;;;;;16.22;50.95;98936.94;6537014;21;19996;-76
2024/04/23 03:07:17;;;;;;;1.40;0.80;;;;;;;16.17;50.56;98933.09;6536415;21;19997;-76
2024/04/23 03:09:42;;;;;;;1.85;0.70;;;;;;;16.13;51.03;98923.81;6579532;21;20128;-76
2024/04/23 03:12:08;;;;;;;1.95;0.93;;;;;;;16.10;51.06;98915.25;6536829;21;19996;-77
2024/04/23 03:14:33;;;;;;;1.45;0.80;;;;;;;16.13;50.90;98924.66;6491506;21;19988;-76
2024/04/23 03:16:59;;;;;;;2.58;0.90;;;;;;;16.13;50.93;98923.81;6537083;21;20003;-77
2024/04/23 03:19:25;;;;;;;1.55;0.75;;;;;;;16.10;51.21;98925.78;6493408;21;20400;-77
2024/04/23 03:21:55;;;;;;;3.10;0.90;;;;;;;15.98;51.66;98913.78;6536242;21;19992;-77
2024/04/23 03:24:20;;;;;;;11.30;2.55;;;;;;;16.01;51.43;98918.75;6484329;22;19997;-79
2024/04/23 03:26:46;;;;;;;2.55;1.05;;;;;;;15.97;51.28;98909.53;6450194;21;19993;-77
2024/04/23 03:29:12;;;;;;;2.42;0.95;;;;;;;15.99;51.54;98910.19;6493315;21;20003;-76
2024/04/23 03:31:39;;;;;;;1.88;0.95;;;;;;;16.00;51.51;98911.00;6494180;21;20030;-76
2024/04/23 03:34:05;;;;;;;1.98;0.90;;;;;;;15.93;52.02;98904.69;6536516;21;20004;-77
2024/04/23 03:36:30;;;;;;;1.90;0.90;;;;;;;15.91;51.81;98904.84;6536503;21;20011;-77
2024/04/23 03:38:56;;;;;;;1.13;0.80;;;;;;;15.92;51.96;98903.84;6535980;21;20292;-78
2024/04/23 03:41:21;;;;;;;1.75;1.00;;;;;;;15.93;52.12;98908.16;6493603;21;19992;-76
2024/04/23 03:43:47;;;;;;;2.47;1.00;;;;;;;15.85;52.26;98908.06;6536994;21;19992;-77
2024/04/23 03:46:12;;;;;;;2.65;1.08;;;;;;;15.76;52.70;98908.91;6582513;21;19992;-77
2024/04/23 03:48:38;;;;;;;1.05;0.77;;;;;;;15.74;52.58;98909.03;6536071;21;20395;-78
2024/04/23 03:51:04;;;;;;;4.10;0.95;;;;;;;15.73;52.69;98912.63;6536223;21;20067;-78
2024/04/23 03:53:31;;;;;;;1.75;0.75;;;;;;;15.62;52.77;98921.53;6495506;21;20016;-83
2024/04/23 03:55:56;;;;;;;1.60;0.82;;;;;;;15.59;53.05;98919.19;6493423;21;20293;-78
2024/04/23 03:58:22;;;;;;;2.70;1.13;;;;;;;15.74;57.54;98916.94;6535890;21;19992;-78
2024/04/23 04:00:47;;;;;;;5.18;1.38;;;;;;;16.00;57.43;98924.19;6579997;21;19992;-75
2024/04/23 04:06:06;;;;;;;4.13;1.05;;;;;;;16.24;55.65;98927.09;6543146;21;20000;-77
2024/04/23 04:08:35;;;;;;;8.30;1.30;;;;;;;16.22;55.22;98923.75;6497292;21;20024;-80
2024/04/23 04:11:01;;;;;;;5.38;1.42;;;;;;;16.23;55.71;98929.88;6536642;21;20388;-80
2024/04/23 04:13:26;;;;;;;2.33;0.90;;;;;;;16.20;55.34;98915.19;6536220;21;20005;-80
2024/04/23 04:15:52;;;;;;;3.13;1.15;;;;;;;16.12;55.20;98904.56;6536200;21;20324;-79
2024/04/23 04:18:18;;;;;;;1.73;0.90;;;;;;;16.07;54.83;98910.28;6536037;21;20315;-80
2024/04/23 04:20:44;;;;;;;1.85;0.95;;;;;;;16.03;54.97;98913.34;6536446;21;20384;-80
2024/04/23 04:23:09;;;;;;;3.28;1.08;;;;;;;15.97;55.19;98921.84;6491524;21;20370;-79
2024/04/23 04:25:35;;;;;;;2.45;0.90;;;;;;;15.91;55.28;98920.63;6493910;21;19999;-80
2024/04/23 04:28:00;;;;;;;4.75;1.05;;;;;;;15.82;55.34;98922.34;6491717;21;19992;-80
2024/04/23 04:30:26;;;;;;;2.03;1.00;;;;;;;15.79;55.71;98932.34;6491664;21;19988;-80
2024/04/23 04:32:51;;;;;;;5.60;1.25;;;;;;;15.72;55.75;98940.78;6492812;21;20288;-79
2024/04/23 04:35:17;;;;;;;2.78;1.05;;;;;;;15.66;56.05;98943.97;6532116;21;19992;-79
2024/04/23 04:37:47;;;;;;;2.90;1.17;;;;;;;15.70;55.91;98955.03;6535180;21;19999;-78
2024/04/23 04:40:13;;;;;;;3.40;0.80;;;;;;;15.68;56.17;98938.56;6535854;21;20440;-79
2024/04/23 04:42:38;;;;;;;1.08;0.73;;;;;;;15.65;55.89;98950.19;6535719;21;19988;-79
2024/04/23 04:45:04;;;;;;;2.15;0.85;;;;;;;15.58;56.16;98941.25;6533771;21;20412;-79
2024/04/23 04:47:30;;;;;;;1.55;0.95;;;;;;;15.56;56.58;98949.28;6492560;21;19989;-79
2024/04/23 04:49:55;;;;;;;4.43;1.00;;;;;;;15.60;56.53;98947.19;6536572;21;20370;-79
2024/04/23 04:52:21;;;;;;;3.17;0.93;;;;;;;15.55;56.74;98937.09;6537041;21;19996;-80
2024/04/23 04:54:46;;;;;;;3.15;1.10;;;;;;;15.53;56.70;98933.78;6492892;21;19993;-82
2024/04/23 04:57:12;;;;;;;2.38;1.10;;;;;;;15.58;56.66;98924.63;6492941;21;20277;-81
2024/04/23 04:59:37;;;;;;;2.25;0.93;;;;;;;15.53;56.64;98917.19;6535473;21;20039;-82
2024/04/23 05:02:03;;;;;;;2.38;0.82;;;;;;;15.52;57.05;98915.50;6580032;21;20397;-81
2024/04/23 05:04:28;;;;;;;2.08;0.95;;;;;;;15.56;56.81;98927.41;6492053;21;19985;-81
2024/04/23 05:06:54;;;;;;;1.98;1.10;;;;;;;15.50;57.13;98933.25;6580169;21;19995;-81
2024/04/23 05:09:20;;;;;;;3.28;1.23;;;;;;;15.51;58.19;98941.00;6586682;21;20008;-87
2024/04/23 05:11:46;;;;;;;1.65;1.02;;;;;;;15.69;58.77;98958.66;6499110;21;20012;-82
2024/04/23 05:14:11;;;;;;;1.65;1.02;;;;;;;15.66;58.27;98959.78;6535876;21;20385;-82
2024/04/23 05:16:39;;;;;;;2.88;1.00;;;;;;;15.64;58.35;98974.03;6534525;21;19988;-78
2024/04/23 05:19:05;;;;;;;2.40;0.90;;;;;;;15.63;58.19;98978.47;6579100;21;20405;-79
2024/04/23 05:21:30;;;;;;;2.53;1.30;;;;;;;15.60;58.25;98978.75;6535625;21;20259;-79
2024/04/23 05:23:56;;;;;;;3.15;1.33;;;;;;;15.64;59.61;98976.66;6533403;21;19988;-81
2024/04/23 05:26:23;;;;;;;4.00;1.20;;;;;;;15.62;59.60;98962.81;6535063;21;19992;-82
2024/04/23 05:28:48;;;;;;;3.17;1.23;;;;;;;15.60;59.33;98957.72;6495463;21;19993;-82
2024/04/23 05:33:59;;;;;;;2.33;1.10;;;;;;;15.60;58.86;98959.53;6582629;21;20007;-83
2024/04/23 05:36:25;;;;;;;3.65;1.38;;;;;;;15.55;59.21;98960.78;6538308;21;19999;-84
2024/04/23 05:38:51;;;;;;;3.22;1.20;;;;;;;15.50;59.09;98960.38;6536144;21;20002;-83
2024/04/23 05:41:16;;;;;;;2.13;1.25;;;;;;;15.53;59.19;98972.44;6537700;21;20396;-82
2024/04/23 05:43:42;;;;;;;2.20;1.17;;;;;;;15.49;58.99;98968.41;6538297;21;19997;-78
2024/04/23 05:46:07;;;;;;;3.67;1.20;;;;;;;15.52;59.15;98984.72;6495129;21;20288;-83
2024/04/23 05:49:10;;;;;;;1.73;1.00;;;;;;;15.52;59.00;99000.50;6538893;21;19999;-82
2024/04/23 05:52:13;;;;;;;1.60;1.00;;;;;;;15.52;59.26;98981.28;6584052;21;19993;-83
2024/04/23 05:55:16;;;;;;;1.92;1.05;;;;;;;15.52;59.08;98968.13;6584606;21;20120;-83
2024/04/23 05:57:41;;;;;;;1.95;1.00;;;;;;;15.51;58.97;98958.56;6584163;21;20409;-83
2024/04/23 06:00:07;;;;;;;2.72;1.20;;;;;;;15.49;58.97;98942.91;6584293;21;20003;-84
2024/04/23 06:02:33;;;;;;;4.97;1.13;;;;;;;15.49;58.63;98936.84;6539492;21;19997;-82
2024/04/23 06:04:58;;;;;;;3.03;1.20;;;;;;;15.50;59.01;98931.44;6582797;21;20071;-81
2024/04/23 06:07:24;;;;;;;2.95;1.05;;;;;;;15.46;58.81;98932.69;6539685;21;19997;-85
2024/04/23 06:09:49;;;;;;;1.45;0.90;;;;;;;15.49;58.83;98935.03;6539145;21;19996;-84
2024/04/23 06:12:15;;;;;;;2.20;1.08;;;;;;;15.47;59.06;98928.28;6581847;21;20007;-84
2024/04/23 06:14:43;;;;;;;2.22;1.00;;;;;;;15.51;58.92;98932.25;6538161;21;19998;-83
2024/04/23 06:17:19;;;;;;;1.17;0.85;;;;;;;15.52;59.17;98932.13;6584112;21;19988;-82
2024/04/23 06:19:49;;;;;;;3.78;1.17;;;;;;;15.53;59.21;98938.22;6538993;21;19992;-82
2024/04/23 06:22:16;;;;;;;2.42;1.30;;;;;;;15.53;58.91;98952.19;6496980;21;20067;-81
2024/04/23 06:24:42;;;;;;;2.65;1.20;;;;;;;15.52;58.85;98957.59;6538384;21;20385;-82
2024/04/23 06:27:07;;;;;;;4.18;1.40;;;;;;;15.49;58.80;98950.00;6538496;21;19989;-79
2024/04/23 06:29:33;;;;;;;3.67;1.50;;;;;;;15.50;58.86;98949.84;6493261;21;19988;-80
2024/04/23 06:31:58;;;;;;;2.33;1.20;;;;;;;15.47;59.06;98952.78;6538587;21;20296;-79
2024/04/23 06:34:24;;;;;;;1.92;1.17;;;;;;;15.51;59.10;98954.16;6538484;21;20004;-79
2024/04/23 06:36:49;;;;;;;11.85;1.60;;;;;;;15.84;62.02;98940.63;6537946;21;19988;-79
2024/04/23 06:39:15;;;;;;;2.55;0.90;;;;;;;15.83;61.17;98937.16;6484497;22;19993;-81
2024/04/23 06:41:40;;;;;;;6.63;1.30;;;;;;;15.85;60.96;98937.84;6535134;21;19997;-79
2024/04/23 06:44:05;;;;;;;11.07;1.48;;;;;;;15.93;60.45;98938.91;6495328;21;19988;-81
2024/04/23 06:46:31;;;;;;;5.78;1.17;;;;;;;15.87;59.95;98919.25;6453514;21;19992;-77
2024/04/23 06:48:56;;;;;;;8.32;1.10;;;;;;;16.42;61.43;98918.38;6494641;21;19988;-82
2024/04/23 06:51:22;;;;;;;4.22;1.58;;;;;;;16.41;60.52;98896.47;6493204;21;19992;-82
2024/04/23 06:53:51;;;;;;;8.07;1.95;;;;;;;16.37;60.00;98904.84;6496370;21;19992;-82
2024/04/23 06:56:18;;;;;;;4.88;1.73;;;;;;;16.31;59.37;98910.69;6456482;21;20003;-82
2024/04/23 06:58:46;;;;;;;4.35;1.50;;;;;;;16.21;59.09;98881.78;6496932;21;20419;-84
2024/04/23 07:01:14;;;;;;;3.65;1.55;;;;;;;16.21;59.01;98889.69;6454078;21;20004;-82
2024/04/23 07:03:43;;;;;;;2.25;1.50;;;;;;;16.15;58.80;98879.75;6455482;21;20350;-83
2024/04/23 07:06:13;;;;;;;4.32;1.73;;;;;;;16.12;58.58;98851.09;6454123;21;20003;-81
2024/04/23 07:08:43;;;;;;;4.13;1.52;;;;;;;16.05;58.78;98830.63;6540466;21;19992;-83
2024/04/23 07:11:09;;;;;;;4.95;1.70;;;;;;;16.03;58.89;98827.28;6497971;21;20021;-84
2024/04/23 07:13:34;;;;;;;3.75;1.30;;;;;;;16.01;58.63;98833.69;6496554;21;20043;-80
2024/04/23 07:16:03;;;;;;;2.08;1.40;;;;;;;15.98;58.89;98855.06;6539505;21;20296;-82
2024/04/23 07:18:29;;;;;;;2.63;1.40;;;;;;;15.91;59.00;98874.06;6496498;21;20285;-81
2024/04/23 07:20:54;;;;;;;3.85;1.30;;;;;;;15.94;60.08;98895.81;6452075;21;20000;-79
2024/04/23 07:23:20;;;;;;;2.30;1.15;;;;;;;16.64;61.21;98932.91;6451996;21;20002;-76
2024/04/23 07:25:52;;;;;;;8.45;1.50;;;;;;;17.14;59.14;98929.72;6492839;21;20003;-76
2024/04/23 07:28:20;;;;;;;5.43;1.10;;;;;;;17.59;56.71;98946.28;6453141;21;20007;-79
2024/04/23 07:30:46;;;;;;;15.18;1.73;;;;;;;17.92;55.56;98937.72;6493376;21;20395;-77
2024/04/23 07:33:11;;;;;;;15.82;1.48;;;;;;;18.22;54.42;98942.44;6492099;21;19992;-77
2024/04/23 07:35:39;;;;;;;6.75;1.98;;;;;;;18.39;54.26;98943.31;6494116;21;19993;-75
2024/04/23 07:38:09;;;;;;;8.27;1.65;;;;;;;18.63;53.63;98944.34;6440134;22;19993;-82
2024/04/23 07:40:35;;;;;;;12.05;1.60;;;;;;;18.54;53.18;98946.16;6487990;22;20005;-81
2024/04/23 07:43:03;;;;;;;9.00;1.27;;;;;;;18.25;52.84;98941.31;6530525;22;20256;-78
2024/04/23 07:45:29;;;;;;;6.85;1.65;;;;;;;17.98;53.48;98945.00;6488538;22;19997;-78
2024/04/23 07:47:54;;;;;;;3.65;1.50;;;;;;;17.74;53.84;98933.31;6443609;22;20004;-76
2024/04/23 07:50:20;;;;;;;4.90;1.70;;;;;;;17.61;54.33;98948.78;6484811;22;20009;-85
2024/04/23 07:52:45;;;;;;;5.80;1.70;;;;;;;17.45;54.75;98946.88;6488517;22;19993;-84
2024/04/23 07:55:11;;;;;;;5.65;1.67;;;;;;;17.28;54.70;98940.66;6448558;22;20004;-85
2024/04/23 07:57:36;;;;;;;3.90;1.48;;;;;;;17.13;55.17;98933.31;6488998;22;19993;-82
2024/04/23 08:00:02;;;;;;;3.28;1.60;;;;;;;17.06;55.47;98924.34;6487799;22;19997;-85
2024/04/23 08:02:28;;;;;;;5.50;2.05;;;;;;;16.95;55.74;98916.69;6445068;22;20406;-85
2024/04/23 08:04:53;;;;;;;5.85;1.50;;;;;;;16.90;55.78;98909.25;6446160;22;19993;-83
2024/04/23 08:07:19;;;;;;;7.93;1.60;;;;;;;17.04;58.30;98909.69;6487295;22;20066;-84
2024/04/23 08:09:44;;;;;;;4.10;1.30;;;;;;;16.95;57.58;98892.97;6444541;22;20310;-84
2024/04/23 08:12:10;;;;;;;3.67;1.58;;;;;;;16.87;57.15;98898.19;6444683;22;20001;-84
2024/04/23 08:14:35;;;;;;;3.20;1.58;;;;;;;16.78;57.30;98897.28;6488200;22;19999;-82
2024/04/23 08:17:01;;;;;;;5.57;1.42;;;;;;;16.67;57.26;98900.97;6529763;22;20011;-79
2024/04/23 08:19:26;;;;;;;3.25;1.35;;;;;;;16.64;58.01;98906.56;6446234;22;20001;-78
2024/04/23 08:21:54;;;;;;;8.98;1.70;;;;;;;16.84;59.75;98904.56;6488649;22;20004;-86
2024/04/23 08:24:19;;;;;;;6.63;1.80;;;;;;;16.96;60.36;98894.63;6545921;21;21316;-87
2024/04/23 08:26:45;;;;;;;4.07;1.52;;;;;;;16.88;59.57;98891.94;6557118;21;19981;-91
2024/04/23 08:29:10;;;;;;;5.53;1.50;;;;;;;16.83;59.19;98895.81;6504739;21;20004;-88
2024/04/23 08:31:36;;;;;;;3.47;1.50;;;;;;;16.77;58.74;98892.97;6497353;21;19999;-85
2024/04/23 08:34:01;;;;;;;5.18;1.30;;;;;;;16.69;58.62;98888.47;6547981;21;19999;-93
2024/04/23 08:36:28;;;;;;;4.32;1.23;;;;;;;16.62;58.82;98874.25;6545693;21;19996;-89
2024/04/23 08:38:53;;;;;;;1.85;1.10;;;;;;;16.55;58.65;98875.84;6508197;21;19988;-91
2024/04/23 08:41:20;;;;;;;5.00;1.80;;;;;;;16.48;58.59;98890.56;6507986;21;19984;-85
2024/04/23 08:44:07;;;;;;;2.28;1.02;;;;;;;16.40;58.89;98904.53;6546437;21;19999;-85
2024/04/23 08:46:33;;;;;;;4.63;1.25;;;;;;;16.30;58.98;98903.75;6583741;21;19992;-89
2024/04/23 08:48:58;;;;;;;1.77;1.15;;;;;;;16.26;58.96;98890.06;6503414;21;19999;-92
2024/04/23 08:51:25;;;;;;;3.50;1.20;;;;;;;16.21;59.25;98887.06;6472746;21;19984;-88
2024/04/23 08:53:56;;;;;;;1.75;1.00;;;;;;;16.18;59.20;98900.53;6510827;21;20088;-90
2024/04/23 08:56:24;;;;;;;3.97;1.20;;;;;;;16.13;59.11;98892.22;6548095;21;20021;-90
2024/04/23 08:58:52;;;;;;;2.58;0.90;;;;;;;16.08;59.12;98890.88;6544877;21;20017;-87
2024/04/23 09:01:23;;;;;;;3.80;1.08;;;;;;;16.06;59.38;98884.91;6496824;21;20000;-87
2024/04/23 09:03:48;;;;;;;3.70;1.17;;;;;;;16.04;59.36;98878.97;6497265;21;19992;-88
2024/04/23 09:06:14;;;;;;;1.27;0.90;;;;;;;16.03;59.06;98868.59;6456285;21;20404;-88
2024/04/23 09:08:39;;;;;;;1.75;1.08;;;;;;;16.02;59.56;98845.88;6499470;21;20135;-89
2024/04/23 09:11:05;;;;;;;1.83;0.90;;;;;;;15.97;59.31;98850.75;6454965;21;20007;-87
2024/04/23 09:13:31;;;;;;;2.15;1.00;;;;;;;15.99;59.53;98860.16;6541534;21;20020;-89
2024/04/23 09:15:57;;;;;;;2.20;1.10;;;;;;;15.96;59.68;98842.03;6451873;22;19993;-89
2024/04/23 09:18:25;;;;;;;1.90;1.10;;;;;;;15.86;59.63;98805.25;6497710;22;20067;-87
2024/04/23 09:20:53;;;;;;;2.33;1.20;;;;;;;15.94;59.49;98817.69;6450419;22;20071;-89
2024/04/23 09:23:19;;;;;;;5.82;1.60;;;;;;;15.93;59.55;98812.56;6533571;21;20004;-88
2024/04/23 09:25:45;;;;;;;5.05;1.10;;;;;;;15.91;59.74;98807.44;6544695;21;20118;-89
2024/04/23 09:28:20;;;;;;;3.17;1.13;;;;;;;15.88;59.78;98782.22;6586827;21;20007;-88
2024/04/23 09:30:46;;;;;;;2.15;0.95;;;;;;;15.90;59.56;98777.63;6582974;21;19993;-90
2024/04/23 09:33:12;;;;;;;2.20;1.05;;;;;;;15.90;59.82;98788.16;6538593;21;19992;-88
2024/04/23 09:35:38;;;;;;;2.25;1.13;;;;;;;15.89;59.47;98775.16;6582867;21;20004;-87
2024/04/23 09:38:07;;;;;;;2.00;1.00;;;;;;;15.90;59.69;98782.91;6581804;21;19993;-88
2024/04/23 09:40:39;;;;;;;1.35;0.93;;;;;;;15.89;59.75;98783.06;6584143;21;19992;-87
2024/04/23 09:43:05;;;;;;;1.88;1.02;;;;;;;15.83;59.86;98781.88;6583001;21;20401;-89
2024/04/23 09:45:31;;;;;;;2.08;0.95;;;;;;;15.86;59.73;98772.81;6583166;21;20021;-89
2024/04/23 09:48:00;;;;;;;1.63;0.80;;;;;;;15.84;59.72;98774.78;6626635;21;20007;-86
2024/04/23 09:50:29;;;;;;;3.30;1.10;;;;;;;15.82;59.58;98774.94;6583247;21;20004;-88
2024/04/23 09:53:03;;;;;;;3.05;1.10;;;;;;;15.83;59.99;98773.13;6581032;21;19993;-87
2024/04/23 09:55:29;;;;;;;1.98;0.90;;;;;;;15.82;59.68;98753.88;6581998;21;20309;-89
2024/04/23 09:57:54;;;;;;;1.45;0.80;;;;;;;15.84;60.02;98769.53;6540320;21;20048;-89
2024/04/23 10:00:20;;;;;;;2.28;0.90;;;;;;;15.81;60.02;98760.09;6542411;21;19989;-90
2024/04/23 10:02:53;;;;;;;1.63;0.70;;;;;;;15.83;60.06;98775.75;6541760;21;19999;-90
2024/04/23 10:05:25;;;;;;;1.33;0.85;;;;;;;15.80;60.31;98771.63;6584779;21;20043;-89
2024/04/23 10:08:15;;;;;;;1.85;0.80;;;;;;;15.74;60.22;98744.06;6543668;21;20426;-91
2024/04/23 10:10:47;;;;;;;1.40;0.85;;;;;;;15.78;60.33;98738.53;6582983;21;20004;-88
2024/04/23 10:13:19;;;;;;;1.85;0.90;;;;;;;15.71;60.42;98722.50;6581089;21;20485;-88
2024/04/23 10:16:00;;;;;;;1.63;0.98;;;;;;;15.73;60.55;98716.13;6538338;21;19992;-88
2024/04/23 10:18:26;;;;;;;3.05;0.90;;;;;;;15.63;60.42;98698.75;6584388;21;20020;-87
2024/04/23 10:20:52;;;;;;;0.80;0.65;;;;;;;15.72;60.79;98705.72;6584822;21;20380;-86
2024/04/23 10:23:20;;;;;;;2.25;1.00;;;;;;;15.67;60.79;98705.34;6541287;21;20003;-90
2024/04/23 10:25:47;;;;;;;3.13;1.00;;;;;;;15.67;61.12;98692.19;6583905;21;20003;-87
2024/04/23 10:28:13;;;;;;;3.10;0.80;;;;;;;15.70;60.99;98684.84;6583328;21;20016;-87
2024/04/23 10:30:39;;;;;;;1.90;0.80;;;;;;;15.67;60.96;98687.75;6538646;21;20256;-87
2024/04/23 10:33:04;;;;;;;1.40;0.80;;;;;;;15.65;61.01;98679.19;6543235;21;19989;-90
2024/04/23 10:35:30;;;;;;;2.00;1.00;;;;;;;15.67;61.07;98685.13;6545626;21;19988;-91
2024/04/23 10:37:56;;;;;;;1.77;1.00;;;;;;;15.68;61.40;98683.31;6587361;21;20351;-88
2024/04/23 10:40:22;;;;;;;1.10;0.75;;;;;;;15.66;61.29;98680.84;6544100;21;19992;-89
2024/04/23 10:42:47;;;;;;;1.08;0.75;;;;;;;15.64;61.32;98701.22;6586602;21;19988;-86
2024/04/23 10:45:16;;;;;;;1.88;1.00;;;;;;;15.66;61.41;98703.69;6540532;21;20387;-89
2024/04/23 10:47:51;;;;;;;;;;;;;;;15.63;61.51;98706.63;6541000;21;19996;-88
2024/04/23 10:50:27;;;;;;;3.38;1.10;;;;;;;15.58;61.78;98698.38;6542826;21;20213;-89
2024/04/23 10:52:56;;;;;;;1.88;1.10;;;;;;;15.60;61.90;98707.75;6589686;21;20000;-91
2024/04/23 10:55:26;;;;;;;3.80;1.27;;;;;;;15.58;61.66;98690.47;6539154;21;20020;-87
2024/04/23 10:57:55;;;;;;;2.55;1.08;;;;;;;15.62;61.69;98683.91;6539683;21;19996;-89
2024/04/23 11:00:32;;;;;;;2.88;1.20;;;;;;;15.63;61.71;98694.28;6541239;21;20021;-88
2024/04/23 11:02:57;;;;;;;2.83;1.30;;;;;;;15.63;61.61;98675.88;6540280;21;20008;-84
2024/04/23 11:05:32;;;;;;;2.25;1.15;;;;;;;15.64;61.75;98676.69;6585262;21;19992;-86
2024/04/23 11:08:07;;;;;;;2.15;1.20;;;;;;;15.58;61.81;98675.50;6586571;21;19993;-88
2024/04/23 11:11:05;;;;;;;4.57;1.27;;;;;;;15.62;62.05;98683.91;6536771;21;19992;-84
2024/04/23 11:13:40;;;;;;;2.38;0.95;;;;;;;15.61;61.97;98677.84;6390594;22;20472;-83
2024/04/23 11:16:16;;;;;;;2.90;1.20;;;;;;;15.60;62.18;98673.53;6391523;22;20008;-83
2024/04/23 11:18:42;;;;;;;5.18;1.30;;;;;;;15.60;61.88;98670.91;6391720;22;20072;-83
2024/04/23 11:21:08;;;;;;;2.13;0.90;;;;;;;15.55;61.88;98655.56;6350672;22;20295;-85
2024/04/23 11:23:41;;;;;;;2.45;1.05;;;;;;;15.60;62.08;98655.13;6393127;22;20005;-86
2024/04/23 11:26:09;;;;;;;1.95;0.95;;;;;;;15.59;61.78;98648.19;6394089;22;20006;-83
2024/04/23 11:28:36;;;;;;;3.15;1.00;;;;;;;15.61;62.05;98643.63;6351802;22;20060;-87
2024/04/23 11:31:01;;;;;;;2.75;0.93;;;;;;;15.65;62.00;98633.63;6395844;22;19990;-89
2024/04/23 11:33:27;;;;;;;1.55;0.75;;;;;;;15.63;61.73;98623.25;6395136;22;20041;-88
2024/04/23 11:35:53;;;;;;;1.77;0.90;;;;;;;15.63;61.96;98620.63;6355282;22;19990;-89
2024/04/23 11:38:18;;;;;;;1.25;0.75;;;;;;;15.65;61.76;98615.22;6396590;22;19990;-88
2024/04/23 11:40:46;;;;;;;1.45;0.93;;;;;;;15.68;61.68;98623.63;6356076;22;20001;-88